This is the latest recevied weather packets stored in our database for station/object KI6AOK. If no packets are shown the sender has not sent any weather packets the latest 10 day(s).
| Time | Temp. | Humidity | Pressure | Rain* | Wind** | Luminosity | Snow |
|---|---|---|---|---|---|---|---|
| 1777850732 | 21.11° C | 48% | 1012.5 hPa | 0 mm | - | 260 W/m² | - |
| 1777850430 | 21.67° C | 47% | 1012.3 hPa | 0 mm | - | 477 W/m² | - |
| 1777850127 | 20.56° C | 49% | 1012.5 hPa | 0 mm | - | 498 W/m² | - |
| 1777849824 | 20.56° C | 51% | 1012.7 hPa | 0 mm | - | 437 W/m² | - |
| 1777849520 | 21.67° C | 48% | 1012.7 hPa | 0 mm | - | 164 W/m² | - |
| 1777849218 | 21.67° C | 48% | 1012.7 hPa | 0 mm | - | 577 W/m² | - |
| 1777848915 | 22.22° C | 47% | 1012.7 hPa | 0 mm | - | 606 W/m² | - |
| 1777848610 | 21.67° C | 48% | 1012.8 hPa | 0 mm | - | 595 W/m² | - |
| 1777848307 | 21.67° C | 49% | 1012.8 hPa | 0 mm | - | 573 W/m² | - |
| 1777848005 | 22.22° C | 47% | 1012.8 hPa | 0 mm | - | 595 W/m² | - |
| 1777847703 | 21.67° C | 49% | 1012.8 hPa | 0 mm | - | 613 W/m² | - |
| 1777847398 | 21.67° C | 49% | 1012.9 hPa | 0 mm | - | 631 W/m² | - |
| 1777847097 | 21.67° C | 49% | 1013 hPa | 0 mm | - | 641 W/m² | - |
| 1777846794 | 21.67° C | 50% | 1013 hPa | 0 mm | - | 569 W/m² | - |
| 1777846492 | 21.11° C | 50% | 1012.8 hPa | 0 mm | - | 695 W/m² | - |
| 1777846189 | 21.67° C | 52% | 1013 hPa | 0 mm | - | 524 W/m² | - |
| 1777845885 | 22.78° C | 49% | 1013.2 hPa | 0 mm | - | 366 W/m² | - |
| 1777845582 | 21.67° C | 51% | 1013.2 hPa | 0 mm | - | 737 W/m² | - |
| 1777845279 | 21.11° C | 53% | 1013.4 hPa | 0 mm | - | 789 W/m² | - |
| 1777844977 | 21.11° C | 54% | 1013.5 hPa | 0 mm | - | 840 W/m² | - |
| 1777844675 | 21.67° C | 51% | 1013.4 hPa | 0 mm | - | 288 W/m² | - |
| 1777844372 | 22.22° C | 51% | 1013.4 hPa | 0 mm | - | 714 W/m² | - |
| 1777844070 | 21.67° C | 51% | 1013.3 hPa | 0 mm | - | 823 W/m² | - |
| 1777843766 | 20.56° C | 54% | 1013.5 hPa | 0 mm | - | 833 W/m² | - |
| 1777843464 | 21.67° C | 53% | 1013.4 hPa | 0 mm | - | 314 W/m² | - |
* Rain latest hour (hover to see other rain measurements)
** Current wind speed in m/s (hover to see current wind gust speed)